createdAt,value
2019-05-10T00:04:47.565Z,8.33
2019-05-10T00:11:09.069Z,9.17
2019-05-10T00:17:22.115Z,7.00
2019-05-10T00:23:27.887Z,7.57
2019-05-10T00:29:33.671Z,6.90
2019-05-10T00:35:39.418Z,7.73
2019-05-10T00:41:45.334Z,8.60
2019-05-10T00:47:51.334Z,5.97
2019-05-10T00:53:57.049Z,9.80
2019-05-10T01:00:02.800Z,6.53
2019-05-10T01:06:08.628Z,7.00
2019-05-10T01:12:14.313Z,7.70
2019-05-10T01:18:20.136Z,5.20
2019-05-10T01:24:25.860Z,5.40
2019-05-10T01:30:31.572Z,6.67
2019-05-10T01:36:39.549Z,5.47
2019-05-10T01:42:45.310Z,10.57
2019-05-10T01:48:51.621Z,8.00
2019-05-10T01:54:57.939Z,5.43
2019-05-10T02:01:04.250Z,5.97
2019-05-10T02:07:09.970Z,4.97
2019-05-10T02:13:15.682Z,5.57
2019-05-10T02:19:22.751Z,6.07
2019-05-10T02:25:28.473Z,5.37
2019-05-10T02:31:34.219Z,9.03
2019-05-10T02:37:39.956Z,6.93
2019-05-10T02:43:46.016Z,8.27
2019-05-10T02:49:51.770Z,5.40
2019-05-10T02:55:58.870Z,5.47
2019-05-10T03:02:07.599Z,4.90
2019-05-10T03:08:16.415Z,5.43
2019-05-10T03:14:24.062Z,6.60
2019-05-10T03:20:31.397Z,6.73
2019-05-10T03:26:50.263Z,7.30
2019-05-10T03:32:49.469Z,7.37
2019-05-10T03:38:55.558Z,7.00
2019-05-10T03:45:01.284Z,6.90
2019-05-10T03:51:07.323Z,7.70
2019-05-10T03:57:14.664Z,8.93
2019-05-10T04:03:21.088Z,9.23
2019-05-10T04:09:27.038Z,9.20
2019-05-10T04:15:32.895Z,10.10
2019-05-10T04:21:38.631Z,10.60
2019-05-10T04:27:44.355Z,11.40
2019-05-10T04:33:50.203Z,14.53
2019-05-10T04:39:56.086Z,13.37
2019-05-10T04:46:01.894Z,17.17
2019-05-10T04:52:08.146Z,15.87
2019-05-10T04:58:13.876Z,16.37
2019-05-10T05:04:19.753Z,17.17
2019-05-10T05:10:25.524Z,18.03
2019-05-10T05:16:31.260Z,19.03
2019-05-10T05:22:37.083Z,18.00
2019-05-10T05:28:42.944Z,18.33
2019-05-10T05:34:48.700Z,18.93
2019-05-10T05:40:54.831Z,23.17
2019-05-10T05:47:04.421Z,20.60
2019-05-10T05:53:08.378Z,20.43
2019-05-10T05:59:17.346Z,22.97
2019-05-10T06:05:34.072Z,18.60
2019-05-10T06:11:35.137Z,18.40
2019-05-10T06:17:37.131Z,16.30
2019-05-10T06:23:43.700Z,16.70
2019-05-10T06:29:49.725Z,18.33
2019-05-10T06:35:55.482Z,14.73
2019-05-10T06:42:02.277Z,14.27
2019-05-10T06:48:08.132Z,14.10
2019-05-10T06:54:14.082Z,14.07
2019-05-10T07:00:20.197Z,14.33
2019-05-10T07:06:25.984Z,14.83
2019-05-10T07:12:31.743Z,13.83
2019-05-10T07:18:37.681Z,13.47
2019-05-10T07:24:43.487Z,13.97
2019-05-10T07:30:49.224Z,14.50
2019-05-10T07:36:55.558Z,13.70
2019-05-10T07:43:01.350Z,13.47
2019-05-10T07:49:07.252Z,14.73
2019-05-10T07:55:18.554Z,14.37
2019-05-10T08:01:29.114Z,13.90
2019-05-10T08:07:29.384Z,13.30
2019-05-10T08:13:35.571Z,9.50
2019-05-10T08:19:42.146Z,7.23
2019-05-10T08:25:47.869Z,6.50
2019-05-10T08:31:56.006Z,5.77
2019-05-10T08:38:04.551Z,4.10
2019-05-10T08:44:19.121Z,4.63
2019-05-10T08:50:42.216Z,5.97
2019-05-10T08:56:25.360Z,6.47
2019-05-10T09:02:32.873Z,4.10
2019-05-10T09:08:38.797Z,3.77
2019-05-10T09:14:48.827Z,4.30
2019-05-10T09:21:00.494Z,3.20
2019-05-10T09:27:02.658Z,3.80
2019-05-10T09:33:10.319Z,4.00
2019-05-10T09:39:21.331Z,3.53
2019-05-10T09:45:24.361Z,3.97
2019-05-10T09:51:33.093Z,3.53
2019-05-10T09:57:38.223Z,2.73
2019-05-10T10:03:44.980Z,3.40
2019-05-10T10:09:50.863Z,3.10
2019-05-10T10:15:58.121Z,3.50
2019-05-10T10:22:05.743Z,4.27
2019-05-10T10:28:16.977Z,4.47
2019-05-10T10:34:19.016Z,3.90
2019-05-10T10:40:24.852Z,4.13
2019-05-10T10:46:33.956Z,3.70
2019-05-10T10:52:38.202Z,4.43
2019-05-10T10:58:44.000Z,5.80
2019-05-10T11:04:49.912Z,7.13
2019-05-10T11:10:55.649Z,6.27
2019-05-10T11:17:01.360Z,5.67
2019-05-10T11:23:07.198Z,5.80
2019-05-10T11:29:13.929Z,5.97
2019-05-10T11:35:28.523Z,6.80
2019-05-10T11:41:28.314Z,7.80
2019-05-10T11:47:34.113Z,8.57
2019-05-10T11:53:41.471Z,8.33
2019-05-10T11:59:47.575Z,9.10
2019-05-10T12:06:04.361Z,10.43
2019-05-10T12:12:03.380Z,11.77
2019-05-10T12:18:14.712Z,13.40
2019-05-10T12:26:29.497Z,13.90
2019-05-10T12:30:29.594Z,13.67
2019-05-10T12:36:33.437Z,13.27
2019-05-10T12:42:41.581Z,12.70
2019-05-10T12:48:46.929Z,11.87
2019-05-10T12:54:53.303Z,11.60
2019-05-10T13:00:59.286Z,10.50
2019-05-10T13:07:05.094Z,8.70
2019-05-10T13:13:11.110Z,9.10
2019-05-10T13:19:20.122Z,8.93
2019-05-10T13:25:25.066Z,9.20
2019-05-10T13:31:30.901Z,8.10
2019-05-10T13:37:36.736Z,7.80
2019-05-10T13:43:42.669Z,8.23
2019-05-10T13:49:49.314Z,8.70
2019-05-10T13:55:55.241Z,8.50
2019-05-10T14:02:01.197Z,8.97
2019-05-10T14:08:07.059Z,9.60
2019-05-10T14:14:14.518Z,9.40
2019-05-10T14:20:25.047Z,8.93
2019-05-10T14:26:28.220Z,6.17
2019-05-10T14:32:34.108Z,3.83
2019-05-10T14:38:39.910Z,4.47
2019-05-10T14:44:45.631Z,4.23
2019-05-10T14:50:51.477Z,4.07
2019-05-10T14:56:57.242Z,5.13
2019-05-10T15:03:03.805Z,6.03
2019-05-10T15:09:20.237Z,6.50
2019-05-10T15:15:18.305Z,6.23
2019-05-10T15:21:24.099Z,6.17
2019-05-10T15:27:29.917Z,5.87
2019-05-10T15:33:35.784Z,6.20
2019-05-10T15:39:41.914Z,5.93
2019-05-10T15:45:52.455Z,6.30
2019-05-10T15:52:15.185Z,7.80
2019-05-10T15:58:03.705Z,6.77
2019-05-10T16:04:09.417Z,7.77
2019-05-10T16:10:15.679Z,7.37
2019-05-10T16:16:21.645Z,8.80
2019-05-10T16:22:30.382Z,11.57
2019-05-10T16:28:35.134Z,5.17
2019-05-10T16:34:40.879Z,5.50
2019-05-10T16:40:57.258Z,5.20
2019-05-10T16:46:54.140Z,5.07
2019-05-10T16:53:05.757Z,7.40
2019-05-10T16:59:07.806Z,5.67
2019-05-10T17:05:15.632Z,6.57
2019-05-10T17:11:21.149Z,7.03
2019-05-10T17:17:31.117Z,7.73
2019-05-10T17:23:34.455Z,8.53
2019-05-10T17:29:44.606Z,8.73
2019-05-10T17:35:47.727Z,8.83
2019-05-10T17:41:57.595Z,9.07
2019-05-10T17:48:08.066Z,8.93
2019-05-10T17:54:09.916Z,10.10
2019-05-10T18:00:17.405Z,9.77
2019-05-10T18:06:24.485Z,10.27
2019-05-10T18:12:30.510Z,11.30
2019-05-10T18:18:46.148Z,11.47
2019-05-10T18:24:44.425Z,11.10
2019-05-10T18:30:50.402Z,11.17
2019-05-10T18:36:56.285Z,12.87
2019-05-10T18:43:04.670Z,12.63
2019-05-10T18:49:10.009Z,13.90
2019-05-10T18:55:15.968Z,12.87
2019-05-10T19:01:21.897Z,14.63
2019-05-10T19:07:27.625Z,16.43
2019-05-10T19:13:40.156Z,15.87
2019-05-10T19:19:42.286Z,14.33
2019-05-10T19:25:51.693Z,15.63
2019-05-10T19:31:57.640Z,15.37
2019-05-10T19:38:03.685Z,14.57
2019-05-10T19:44:09.550Z,14.90
2019-05-10T19:50:16.050Z,15.30
2019-05-10T19:56:24.105Z,15.83
2019-05-10T20:02:30.007Z,16.07
2019-05-10T20:08:35.779Z,17.80
2019-05-10T20:14:41.810Z,18.03
2019-05-10T20:20:47.808Z,18.87
2019-05-10T20:26:53.527Z,18.90
2019-05-10T20:32:59.437Z,19.00
2019-05-10T20:39:07.384Z,17.90
2019-05-10T20:45:14.216Z,20.33
2019-05-10T20:51:20.672Z,22.97
2019-05-10T20:57:26.727Z,20.13
2019-05-10T21:03:32.629Z,24.30
2019-05-10T21:09:39.205Z,18.73
2019-05-10T21:15:45.031Z,18.83
2019-05-10T21:21:50.827Z,17.80
2019-05-10T21:27:56.600Z,17.63
2019-05-10T21:34:09.621Z,19.33
2019-05-10T21:40:10.943Z,19.13
2019-05-10T21:46:16.720Z,18.07
2019-05-10T21:52:22.731Z,18.27
2019-05-10T21:58:32.719Z,18.00
2019-05-10T22:04:38.441Z,21.97
2019-05-10T22:10:44.249Z,22.23
2019-05-10T22:16:50.120Z,21.70
2019-05-10T22:22:56.191Z,20.70
2019-05-10T22:29:02.097Z,19.63
2019-05-10T22:35:08.281Z,21.80
2019-05-10T22:41:14.370Z,20.73
2019-05-10T22:47:20.540Z,23.00
2019-05-10T22:53:26.349Z,20.93
2019-05-10T22:59:32.317Z,23.10
2019-05-10T23:05:38.201Z,24.63
2019-05-10T23:11:44.065Z,23.83
2019-05-10T23:17:49.763Z,23.93
2019-05-10T23:23:55.776Z,26.53
2019-05-10T23:30:01.637Z,25.00
2019-05-10T23:36:08.231Z,25.17
2019-05-10T23:42:13.984Z,22.90
2019-05-10T23:48:20.505Z,22.93
2019-05-10T23:54:26.478Z,25.43
